createdAt,value
2019-05-23T00:01:46.169Z,100955.53
2019-05-23T00:04:23.811Z,100956.41
2019-05-23T00:06:54.042Z,100952.61
2019-05-23T00:09:24.928Z,100963.00
2019-05-23T00:12:12.103Z,100959.11
2019-05-23T00:14:44.821Z,100968.16
2019-05-23T00:17:18.840Z,100967.09
2019-05-23T00:19:50.392Z,100965.55
2019-05-23T00:22:20.045Z,100967.70
2019-05-23T00:24:50.736Z,100961.32
2019-05-23T00:27:21.776Z,100968.13
2019-05-23T00:29:54.918Z,100959.33
2019-05-23T00:32:43.014Z,100960.70
2019-05-23T00:35:14.357Z,100961.80
2019-05-23T00:37:44.749Z,100964.31
2019-05-23T00:40:17.126Z,100968.98
2019-05-23T00:42:46.887Z,100975.39
2019-05-23T00:45:18.139Z,100966.25
2019-05-23T00:47:47.907Z,100969.01
2019-05-23T00:50:20.809Z,100961.86
2019-05-23T00:52:51.766Z,100958.30
2019-05-23T00:55:22.473Z,100964.52
2019-05-23T00:57:52.637Z,100951.08
2019-05-23T01:00:24.454Z,100948.14
2019-05-23T01:02:55.585Z,100957.02
2019-05-23T01:05:28.037Z,100946.66
2019-05-23T01:07:57.914Z,100954.74
2019-05-23T01:10:28.134Z,100961.23
2019-05-23T01:12:58.129Z,100964.16
2019-05-23T01:15:27.767Z,100979.66
2019-05-23T01:17:57.622Z,100965.84
2019-05-23T01:20:31.662Z,100961.38
2019-05-23T01:23:05.676Z,100973.37
2019-05-23T01:25:36.982Z,100965.62
2019-05-23T01:28:08.276Z,100974.23
2019-05-23T01:30:46.146Z,100971.68
2019-05-23T01:33:17.709Z,100971.88
2019-05-23T01:35:49.010Z,100969.97
2019-05-23T01:38:21.129Z,100967.97
2019-05-23T01:40:51.240Z,100962.84
2019-05-23T01:43:22.826Z,100972.27
2019-05-23T01:45:52.589Z,100972.09
2019-05-23T01:48:23.089Z,100983.59
2019-05-23T01:50:53.477Z,100970.09
2019-05-23T01:53:23.773Z,100982.52
2019-05-23T01:55:53.404Z,100972.20
2019-05-23T01:58:23.248Z,100976.30
2019-05-23T02:00:53.664Z,100981.60
2019-05-23T02:03:23.583Z,100978.41
2019-05-23T02:05:53.420Z,100985.25
2019-05-23T02:08:23.281Z,100978.59
2019-05-23T02:10:53.604Z,100976.56
2019-05-23T02:13:23.236Z,100985.52
2019-05-23T02:15:53.665Z,100986.12
2019-05-23T02:18:25.076Z,100975.39
2019-05-23T02:20:55.371Z,100972.16
2019-05-23T02:23:26.085Z,100972.23
2019-05-23T02:25:57.732Z,100977.71
2019-05-23T02:28:28.018Z,100977.78
2019-05-23T02:30:58.311Z,100982.16
2019-05-23T02:33:28.528Z,100978.88
2019-05-23T02:35:58.793Z,100981.58
2019-05-23T02:38:30.177Z,100984.62
2019-05-23T02:41:05.166Z,101005.42
2019-05-23T02:43:36.097Z,100991.36
2019-05-23T02:46:08.060Z,101010.26
2019-05-23T02:48:46.035Z,101000.39
2019-05-23T02:51:19.636Z,101000.39
2019-05-23T02:53:53.949Z,101034.97
2019-05-23T02:56:24.921Z,100999.47
2019-05-23T02:59:13.370Z,101010.66
2019-05-23T03:01:53.254Z,101001.83
2019-05-23T03:04:25.605Z,101009.94
2019-05-23T03:06:56.298Z,101005.91
2019-05-23T03:09:29.739Z,101001.52
2019-05-23T03:12:02.172Z,101005.63
2019-05-23T03:14:36.752Z,101010.16
2019-05-23T03:17:11.128Z,101006.50
2019-05-23T03:19:57.981Z,101007.40
2019-05-23T03:22:34.369Z,101003.77
2019-05-23T03:25:08.819Z,101006.77
2019-05-23T03:27:45.001Z,101017.63
2019-05-23T03:30:18.455Z,100997.45
2019-05-23T03:32:52.381Z,101018.25
2019-05-23T03:35:26.316Z,101012.16
2019-05-23T03:37:56.418Z,101016.10
2019-05-23T03:40:26.579Z,101006.91
2019-05-23T03:42:56.999Z,101008.70
2019-05-23T03:45:28.277Z,101009.02
2019-05-23T03:47:58.042Z,101008.91
2019-05-23T03:50:28.689Z,101020.20
2019-05-23T03:52:58.834Z,101017.63
2019-05-23T03:55:30.947Z,101007.23
2019-05-23T03:58:00.885Z,101002.91
2019-05-23T04:00:36.369Z,101009.61
2019-05-23T04:03:07.780Z,101009.30
2019-05-23T04:05:39.954Z,101000.84
2019-05-23T04:08:11.874Z,101014.97
2019-05-23T04:10:42.083Z,101005.95
2019-05-23T04:13:13.044Z,101010.23
2019-05-23T04:15:42.825Z,101009.78
2019-05-23T04:18:13.153Z,101015.63
2019-05-23T04:20:43.059Z,101023.84
2019-05-23T04:23:14.071Z,101010.06
2019-05-23T04:25:43.779Z,101025.46
2019-05-23T04:28:17.645Z,101028.12
2019-05-23T04:30:47.912Z,101028.29
2019-05-23T04:33:17.979Z,101021.59
2019-05-23T04:35:48.062Z,101023.80
2019-05-23T04:38:19.099Z,101026.53
2019-05-23T04:40:51.639Z,101026.05
2019-05-23T04:43:21.288Z,101025.32
2019-05-23T04:45:51.294Z,101030.98
2019-05-23T04:48:21.442Z,101043.66
2019-05-23T04:50:51.630Z,101032.53
2019-05-23T04:53:21.653Z,101031.88
2019-05-23T04:55:51.689Z,101039.75
2019-05-23T04:58:21.469Z,101034.27
2019-05-23T05:00:51.340Z,101044.66
2019-05-23T05:03:22.351Z,101042.92
2019-05-23T05:05:52.219Z,101040.27
2019-05-23T05:08:22.281Z,101054.31
2019-05-23T05:10:52.508Z,101052.59
2019-05-23T05:13:22.706Z,101062.36
2019-05-23T05:15:52.370Z,101062.64
2019-05-23T05:18:22.423Z,101079.39
2019-05-23T05:20:52.132Z,101065.17
2019-05-23T05:23:22.315Z,101069.34
2019-05-23T05:25:52.004Z,101082.13
2019-05-23T05:28:21.785Z,101076.39
2019-05-23T05:30:51.886Z,101083.44
2019-05-23T05:33:21.644Z,101081.54
2019-05-23T05:35:51.404Z,101087.03
2019-05-23T05:38:21.037Z,101085.89
2019-05-23T05:40:51.733Z,101087.89
2019-05-23T05:43:21.352Z,101095.32
2019-05-23T05:45:51.539Z,101101.41
2019-05-23T05:48:21.340Z,101111.28
2019-05-23T05:50:51.188Z,101105.89
2019-05-23T05:53:20.886Z,101110.55
2019-05-23T05:55:50.805Z,101114.22
2019-05-23T05:58:20.433Z,101113.97
2019-05-23T06:00:54.446Z,101125.75
2019-05-23T06:03:24.496Z,101117.26
2019-05-23T06:06:05.108Z,101119.47
2019-05-23T06:08:36.705Z,101123.38
2019-05-23T06:11:08.098Z,101122.37
2019-05-23T06:13:37.761Z,101129.69
2019-05-23T06:16:07.532Z,101133.80
2019-05-23T06:18:37.299Z,101136.91
2019-05-23T06:21:07.568Z,101146.45
2019-05-23T06:23:37.432Z,101140.16
2019-05-23T06:26:07.123Z,101137.81
2019-05-23T06:28:38.642Z,101140.47
2019-05-23T06:31:08.683Z,101143.09
2019-05-23T06:33:38.330Z,101145.13
2019-05-23T06:36:08.120Z,101149.88
2019-05-23T06:38:37.908Z,101154.40
2019-05-23T06:41:08.066Z,101163.73
2019-05-23T06:43:38.530Z,101155.47
2019-05-23T06:46:08.337Z,101154.91
2019-05-23T06:48:37.971Z,101159.27
2019-05-23T06:51:07.602Z,101162.13
2019-05-23T06:53:37.279Z,101159.01
2019-05-23T06:56:09.128Z,101155.67
2019-05-23T06:58:39.201Z,101168.21
2019-05-23T07:01:08.986Z,101170.11
2019-05-23T07:03:43.069Z,101165.72
2019-05-23T07:06:13.454Z,101169.77
2019-05-23T07:08:43.209Z,101168.98
2019-05-23T07:11:13.050Z,101165.42
2019-05-23T07:13:43.800Z,101166.01
2019-05-23T07:16:13.595Z,101171.12
2019-05-23T07:18:44.719Z,101167.49
2019-05-23T07:21:15.299Z,101174.89
2019-05-23T07:23:46.385Z,101187.34
2019-05-23T07:26:16.386Z,101194.52
2019-05-23T07:28:46.106Z,101197.18
2019-05-23T07:31:16.830Z,101203.43
2019-05-23T07:34:00.976Z,101204.02
2019-05-23T07:36:18.106Z,101202.92
2019-05-23T07:38:47.905Z,101206.48
2019-05-23T07:41:17.988Z,101206.03
2019-05-23T07:43:47.693Z,101225.56
2019-05-23T07:46:17.388Z,101217.23
2019-05-23T07:48:47.574Z,101222.63
2019-05-23T07:51:17.353Z,101216.23
2019-05-23T07:54:05.566Z,101219.89
2019-05-23T07:56:39.823Z,101222.21
2019-05-23T07:59:11.120Z,101203.99
2019-05-23T08:01:44.275Z,101226.98
2019-05-23T08:04:21.878Z,101226.49
2019-05-23T08:06:48.931Z,101218.02
2019-05-23T08:09:19.645Z,101222.20
2019-05-23T08:11:50.023Z,101229.64
2019-05-23T08:14:20.026Z,101218.51
2019-05-23T08:16:49.684Z,101219.75
2019-05-23T08:19:19.948Z,101231.16
2019-05-23T08:21:49.822Z,101224.69
2019-05-23T08:24:20.133Z,101217.23
2019-05-23T08:26:51.238Z,101215.61
2019-05-23T08:29:25.929Z,101232.44
2019-05-23T08:31:53.938Z,101233.79
2019-05-23T08:34:40.511Z,101243.84
2019-05-23T08:36:55.729Z,101250.45
2019-05-23T08:39:26.921Z,101251.88
2019-05-23T08:41:56.610Z,101268.81
2019-05-23T08:44:26.712Z,101264.87
2019-05-23T08:46:56.578Z,101262.76
2019-05-23T08:49:26.840Z,101269.18
2019-05-23T08:51:56.714Z,101254.59
2019-05-23T08:54:26.747Z,101254.38
2019-05-23T08:56:56.570Z,101258.29
2019-05-23T08:59:26.644Z,101256.60
2019-05-23T09:01:56.716Z,101257.64
2019-05-23T09:05:07.750Z,101268.53
2019-05-23T09:07:16.219Z,101271.55
2019-05-23T09:09:46.912Z,101276.21
2019-05-23T09:12:16.890Z,101270.50
2019-05-23T09:14:46.940Z,101281.50
2019-05-23T09:17:17.023Z,101281.39
2019-05-23T09:19:46.698Z,101279.32
2019-05-23T09:22:21.149Z,101282.98
2019-05-23T09:24:50.864Z,101272.20
2019-05-23T09:27:20.576Z,101278.01
2019-05-23T09:29:50.268Z,101279.70
2019-05-23T09:32:20.173Z,101290.22
2019-05-23T09:34:49.957Z,101286.00
2019-05-23T09:37:20.229Z,101294.75
2019-05-23T09:39:50.347Z,101289.73
2019-05-23T09:42:20.217Z,101299.14
2019-05-23T09:44:49.917Z,101298.23
2019-05-23T09:47:19.880Z,101308.30
2019-05-23T09:49:56.618Z,101308.37
2019-05-23T09:52:21.553Z,101313.77
2019-05-23T09:54:51.355Z,101305.77
2019-05-23T09:57:21.048Z,101314.28
2019-05-23T09:59:50.768Z,101315.86
2019-05-23T10:02:20.888Z,101322.70
2019-05-23T10:04:50.801Z,101317.59
2019-05-23T10:07:20.854Z,101315.18
2019-05-23T10:09:50.667Z,101317.05
2019-05-23T10:12:22.586Z,101308.58
2019-05-23T10:14:52.174Z,101314.36
2019-05-23T10:17:22.940Z,101316.40
2019-05-23T10:19:52.534Z,101323.77
2019-05-23T10:22:22.238Z,101325.31
2019-05-23T10:24:52.002Z,101327.73
2019-05-23T10:27:22.928Z,101326.08
2019-05-23T10:29:55.831Z,101326.45
2019-05-23T10:33:17.759Z,101321.78
2019-05-23T10:35:20.141Z,101325.77
2019-05-23T10:37:49.875Z,101332.66
2019-05-23T10:40:21.168Z,101330.00
2019-05-23T10:42:50.932Z,101340.78
2019-05-23T10:45:20.891Z,101336.84
2019-05-23T10:47:50.506Z,101349.53
2019-05-23T10:50:22.859Z,101340.12
2019-05-23T10:52:52.873Z,101346.07
2019-05-23T10:55:22.503Z,101353.09
2019-05-23T10:57:52.220Z,101359.03
2019-05-23T11:00:23.494Z,101349.77
2019-05-23T11:02:53.117Z,101363.66
2019-05-23T11:05:23.079Z,101369.80
2019-05-23T11:07:52.862Z,101378.48
2019-05-23T11:10:24.372Z,101362.91
2019-05-23T11:12:53.996Z,101376.38
2019-05-23T11:15:23.729Z,101372.64
2019-05-23T11:17:54.243Z,101376.00
2019-05-23T11:20:24.853Z,101364.97
2019-05-23T11:22:56.476Z,101371.05
2019-05-23T11:25:26.232Z,101376.55
2019-05-23T11:27:55.935Z,101380.31
2019-05-23T11:30:27.518Z,101385.66
2019-05-23T11:32:57.485Z,101384.22
2019-05-23T11:35:27.362Z,101387.06
2019-05-23T11:37:57.029Z,101382.78
2019-05-23T11:40:26.994Z,101393.39
2019-05-23T11:42:56.636Z,101393.23
2019-05-23T11:45:29.443Z,101394.73
2019-05-23T11:47:59.231Z,101392.41
2019-05-23T11:50:29.437Z,101390.52
2019-05-23T11:52:59.170Z,101394.27
2019-05-23T11:55:28.889Z,101396.30
2019-05-23T11:57:59.165Z,101392.91
2019-05-23T12:00:54.681Z,101396.20
2019-05-23T12:03:24.534Z,101389.58
2019-05-23T12:05:54.489Z,101390.41
2019-05-23T12:08:24.458Z,101393.53
2019-05-23T12:10:54.252Z,101394.02
2019-05-23T12:13:23.919Z,101385.61
2019-05-23T12:15:53.607Z,101395.86
2019-05-23T12:18:23.320Z,101390.63
2019-05-23T12:20:52.953Z,101393.81
2019-05-23T12:23:23.240Z,101392.41
2019-05-23T12:25:54.311Z,101391.85
2019-05-23T12:28:24.012Z,101391.98
2019-05-23T12:30:53.927Z,101398.87
2019-05-23T12:33:23.633Z,101398.10
2019-05-23T12:35:53.322Z,101391.19
2019-05-23T12:38:22.990Z,101392.47
2019-05-23T12:40:53.471Z,101382.30
2019-05-23T12:43:23.552Z,101383.75
2019-05-23T12:45:53.388Z,101394.73
2019-05-23T12:48:24.681Z,101391.05
2019-05-23T12:51:11.167Z,101392.95
2019-05-23T12:53:40.796Z,101397.39
2019-05-23T12:56:10.494Z,101390.61
2019-05-23T12:58:41.828Z,101385.87
2019-05-23T13:01:13.422Z,101387.98
2019-05-23T13:03:43.837Z,101393.23
2019-05-23T13:06:13.643Z,101388.00
2019-05-23T13:08:43.278Z,101390.11
2019-05-23T13:11:12.971Z,101395.96
2019-05-23T13:13:42.649Z,101395.23
2019-05-23T13:16:12.446Z,101387.61
2019-05-23T13:18:42.065Z,101389.87
2019-05-23T13:21:12.101Z,101396.63
2019-05-23T13:23:41.793Z,101392.56
2019-05-23T13:26:12.120Z,101386.71
2019-05-23T13:28:41.872Z,101395.66
2019-05-23T13:31:11.508Z,101393.23
2019-05-23T13:33:41.405Z,101391.94
2019-05-23T13:36:11.328Z,101395.16
2019-05-23T13:38:41.167Z,101392.09
2019-05-23T13:41:10.801Z,101385.29
2019-05-23T13:43:40.476Z,101396.64
2019-05-23T13:46:10.367Z,101396.04
2019-05-23T13:48:40.077Z,101389.58
2019-05-23T13:51:09.815Z,101393.30
2019-05-23T13:53:39.505Z,101389.95
2019-05-23T13:56:09.217Z,101397.88
2019-05-23T13:58:39.498Z,101405.50
2019-05-23T14:01:10.147Z,101401.77
2019-05-23T14:03:40.459Z,101400.44
2019-05-23T14:06:10.530Z,101392.38
2019-05-23T14:08:40.204Z,101400.48
2019-05-23T14:11:09.980Z,101396.30
2019-05-23T14:13:39.885Z,101395.44
2019-05-23T14:16:09.794Z,101394.09
2019-05-23T14:18:39.516Z,101387.44
2019-05-23T14:21:09.596Z,101394.11
2019-05-23T14:23:39.212Z,101386.70
2019-05-23T14:26:11.303Z,101391.12
2019-05-23T14:28:41.299Z,101394.42
2019-05-23T14:31:12.700Z,101400.95
2019-05-23T14:33:44.177Z,101394.62
2019-05-23T14:36:31.800Z,101397.31
2019-05-23T14:39:00.323Z,101400.05
2019-05-23T14:41:44.859Z,101407.20
2019-05-23T14:44:03.274Z,101400.06
2019-05-23T14:46:36.277Z,101402.38
2019-05-23T14:49:07.859Z,101406.00
2019-05-23T14:51:45.391Z,101404.45
2019-05-23T14:54:19.741Z,101399.72
2019-05-23T14:56:49.404Z,101399.47
2019-05-23T14:59:19.978Z,101403.67
2019-05-23T15:01:49.900Z,101403.78
2019-05-23T15:04:19.657Z,101391.60
2019-05-23T15:06:49.354Z,101398.09
2019-05-23T15:09:21.280Z,101398.80
2019-05-23T15:11:50.495Z,101401.56
2019-05-23T15:14:20.250Z,101397.37
2019-05-23T15:16:50.020Z,101402.68
2019-05-23T15:19:38.090Z,101412.12
2019-05-23T15:21:51.339Z,101409.55
2019-05-23T15:24:21.652Z,101414.49
2019-05-23T15:26:51.294Z,101425.66
2019-05-23T15:29:20.975Z,101418.14
2019-05-23T15:32:01.641Z,101419.98
2019-05-23T15:34:21.981Z,101415.39
2019-05-23T15:36:51.726Z,101410.19
2019-05-23T15:39:22.198Z,101407.51
2019-05-23T15:41:51.898Z,101406.98
2019-05-23T15:44:27.243Z,101416.30
2019-05-23T15:46:53.616Z,101409.63
2019-05-23T15:49:23.337Z,101410.08
2019-05-23T15:52:10.681Z,101407.69
2019-05-23T15:54:51.284Z,101410.17
2019-05-23T15:57:28.538Z,101409.87
2019-05-23T16:00:26.621Z,101406.95
2019-05-23T16:03:06.557Z,101406.69
2019-05-23T16:05:36.930Z,101399.79
2019-05-23T16:08:09.584Z,101399.72
2019-05-23T16:10:39.397Z,101391.66
2019-05-23T16:13:09.416Z,101397.17
2019-05-23T16:15:39.164Z,101397.83
2019-05-23T16:18:10.587Z,101388.39
2019-05-23T16:20:40.192Z,101385.98
2019-05-23T16:23:10.723Z,101389.12
2019-05-23T16:25:46.010Z,101386.47
2019-05-23T16:28:15.667Z,101386.81
2019-05-23T16:30:45.630Z,101387.00
2019-05-23T16:33:16.302Z,101387.64
2019-05-23T16:35:46.164Z,101397.18
2019-05-23T16:38:15.869Z,101391.94
2019-05-23T16:40:47.625Z,101391.29
2019-05-23T16:43:17.687Z,101389.09
2019-05-23T16:45:47.326Z,101392.30
2019-05-23T16:48:16.997Z,101387.99
2019-05-23T16:50:46.858Z,101390.19
2019-05-23T16:53:16.489Z,101393.58
2019-05-23T16:55:53.537Z,101386.44
2019-05-23T16:58:30.792Z,101388.07
2019-05-23T17:01:24.220Z,101394.67
2019-05-23T17:03:57.798Z,101385.52
2019-05-23T17:06:34.961Z,101385.89
2019-05-23T17:09:24.036Z,101388.56
2019-05-23T17:14:41.111Z,101385.35
2019-05-23T17:17:12.441Z,101384.52
2019-05-23T17:19:46.394Z,101389.45
2019-05-23T17:22:26.415Z,101384.59
2019-05-23T17:25:14.218Z,101385.15
2019-05-23T17:27:45.593Z,101389.07
2019-05-23T17:30:26.160Z,101394.63
2019-05-23T17:32:56.158Z,101392.43
2019-05-23T17:35:25.979Z,101402.83
2019-05-23T17:37:55.606Z,101398.23
2019-05-23T17:40:26.475Z,101399.70
2019-05-23T17:42:56.461Z,101400.78
2019-05-23T17:45:26.316Z,101402.77
2019-05-23T17:47:57.615Z,101402.03
2019-05-23T17:50:28.880Z,101402.03
2019-05-23T17:52:58.598Z,101413.01
2019-05-23T17:55:29.027Z,101411.45
2019-05-23T17:57:58.758Z,101413.46
2019-05-23T18:00:30.032Z,101418.89
2019-05-23T18:02:59.781Z,101415.50
2019-05-23T18:05:29.476Z,101411.94
2019-05-23T18:07:59.742Z,101411.86
2019-05-23T18:10:43.733Z,101407.08
2019-05-23T18:13:01.753Z,101410.47
2019-05-23T18:15:31.640Z,101410.85
2019-05-23T18:18:02.244Z,101414.70
2019-05-23T18:20:33.017Z,101414.31
2019-05-23T18:23:03.669Z,101415.53
2019-05-23T18:25:33.831Z,101420.37
2019-05-23T18:28:04.624Z,101417.16
2019-05-23T18:30:35.963Z,101427.31
2019-05-23T18:33:07.211Z,101435.00
2019-05-23T18:35:37.366Z,101433.91
2019-05-23T18:38:14.315Z,101439.31
2019-05-23T18:41:01.675Z,101440.15
2019-05-23T18:43:19.648Z,101449.12
2019-05-23T18:45:51.104Z,101457.70
2019-05-23T18:48:21.230Z,101460.90
2019-05-23T18:50:51.373Z,101462.28
2019-05-23T18:53:21.238Z,101461.07
2019-05-23T18:55:51.115Z,101465.02
2019-05-23T18:58:20.944Z,101466.30
2019-05-23T19:01:00.875Z,101468.03
2019-05-23T19:03:31.418Z,101473.16
2019-05-23T19:06:01.122Z,101478.56
2019-05-23T19:08:31.245Z,101476.76
2019-05-23T19:11:01.288Z,101474.47
2019-05-23T19:13:30.914Z,101471.98
2019-05-23T19:16:00.547Z,101469.83
2019-05-23T19:18:32.623Z,101461.14
2019-05-23T19:21:02.419Z,101464.67
2019-05-23T19:23:33.898Z,101460.93
2019-05-23T19:26:04.115Z,101448.47
2019-05-23T19:28:34.678Z,101455.70
2019-05-23T19:31:04.827Z,101455.39
2019-05-23T19:33:35.722Z,101449.26
2019-05-23T19:36:06.515Z,101444.89
2019-05-23T19:38:36.089Z,101441.33
2019-05-23T19:41:06.031Z,101437.55
2019-05-23T19:43:35.648Z,101431.21
2019-05-23T19:46:05.668Z,101437.12
2019-05-23T19:48:37.011Z,101426.83
2019-05-23T19:51:07.177Z,101431.91
2019-05-23T19:53:36.808Z,101426.52
2019-05-23T19:56:07.130Z,101427.75
2019-05-23T19:58:36.964Z,101418.00
2019-05-23T20:01:07.315Z,101428.59
2019-05-23T20:03:37.076Z,101429.53
2019-05-23T20:06:08.791Z,101428.02
2019-05-23T20:08:38.896Z,101427.30
2019-05-23T20:11:10.406Z,101424.38
2019-05-23T20:13:40.362Z,101416.26
2019-05-23T20:16:10.530Z,101414.97
2019-05-23T20:18:40.632Z,101411.00
2019-05-23T20:21:10.752Z,101409.27
2019-05-23T20:23:40.460Z,101409.86
2019-05-23T20:26:10.769Z,101411.47
2019-05-23T20:28:40.554Z,101410.70
2019-05-23T20:31:10.180Z,101412.52
2019-05-23T20:33:40.317Z,101416.50
2019-05-23T20:36:12.676Z,101406.87
2019-05-23T20:38:42.404Z,101409.14
2019-05-23T20:41:12.447Z,101407.09
2019-05-23T20:43:42.107Z,101408.23
2019-05-23T20:46:13.343Z,101412.13
2019-05-23T20:48:43.044Z,101414.09
2019-05-23T20:51:12.772Z,101414.36
2019-05-23T20:53:43.145Z,101419.70
2019-05-23T20:56:22.228Z,101415.05
2019-05-23T20:58:52.048Z,101418.34
2019-05-23T21:01:23.411Z,101426.09
2019-05-23T21:03:54.148Z,101416.37
2019-05-23T21:06:26.606Z,101416.53
2019-05-23T21:08:56.241Z,101419.97
2019-05-23T21:11:27.450Z,101417.13
2019-05-23T21:13:57.746Z,101418.94
2019-05-23T21:16:28.339Z,101415.61
2019-05-23T21:18:58.012Z,101414.27
2019-05-23T21:21:29.021Z,101421.10
2019-05-23T21:23:58.676Z,101414.45
2019-05-23T21:26:28.393Z,101423.09
2019-05-23T21:28:58.443Z,101415.27
2019-05-23T21:31:28.304Z,101416.76
2019-05-23T21:33:58.022Z,101416.95
2019-05-23T21:36:27.773Z,101408.80
2019-05-23T21:38:57.512Z,101397.81
2019-05-23T21:41:28.201Z,101395.80
2019-05-23T21:43:59.949Z,101394.66
2019-05-23T21:46:29.588Z,101393.30
2019-05-23T21:48:59.293Z,101392.11
2019-05-23T21:51:28.978Z,101391.09
2019-05-23T21:53:58.753Z,101392.02
2019-05-23T21:56:28.471Z,101384.86
2019-05-23T21:58:58.103Z,101393.79
2019-05-23T22:01:29.528Z,101401.09
2019-05-23T22:04:18.796Z,101390.64
2019-05-23T22:06:50.214Z,101389.86
2019-05-23T22:09:21.459Z,101390.70
2019-05-23T22:11:52.791Z,101386.95
2019-05-23T22:14:22.549Z,101395.44
2019-05-23T22:16:52.754Z,101392.95
2019-05-23T22:19:23.959Z,101393.34
2019-05-23T22:21:54.410Z,101400.22
2019-05-23T22:24:24.029Z,101385.49
2019-05-23T22:26:53.690Z,101389.02
2019-05-23T22:29:24.083Z,101387.60
2019-05-23T22:31:56.534Z,101385.87
2019-05-23T22:34:33.157Z,101377.78
2019-05-23T22:37:03.842Z,101380.83
2019-05-23T22:39:33.599Z,101376.80
2019-05-23T22:42:05.999Z,101376.55
2019-05-23T22:44:36.334Z,101374.14
2019-05-23T22:47:06.036Z,101381.34
2019-05-23T22:49:36.077Z,101382.23
2019-05-23T22:52:06.385Z,101379.00
2019-05-23T22:54:36.019Z,101379.88
2019-05-23T22:57:06.010Z,101382.05
2019-05-23T22:59:36.005Z,101376.64
2019-05-23T23:02:07.266Z,101363.28
2019-05-23T23:04:37.187Z,101370.55
2019-05-23T23:07:06.895Z,101376.48
2019-05-23T23:09:36.540Z,101374.42
2019-05-23T23:12:06.236Z,101365.06
2019-05-23T23:14:35.931Z,101371.83
2019-05-23T23:17:05.996Z,101378.11
2019-05-23T23:19:36.015Z,101372.21
2019-05-23T23:22:07.683Z,101363.28
2019-05-23T23:24:37.313Z,101368.44
2019-05-23T23:27:07.666Z,101372.27
2019-05-23T23:29:38.010Z,101373.16
2019-05-23T23:32:08.312Z,101370.99
2019-05-23T23:34:37.955Z,101370.60
2019-05-23T23:37:07.572Z,101368.58
2019-05-23T23:39:38.870Z,101370.44
2019-05-23T23:42:08.782Z,101371.77
2019-05-23T23:44:37.681Z,101370.27
2019-05-23T23:47:25.303Z,101368.31
2019-05-23T23:50:12.966Z,101365.77
2019-05-23T23:52:59.946Z,101365.95
2019-05-23T23:55:47.274Z,101364.81
2019-05-23T23:58:16.192Z,101365.01
